sensor_id;sensor_type;location;lat;lon;timestamp;P1;durP1;ratioP1;P2;durP2;ratioP2
23472;SDS011;11909;52.516;13.564;2023-11-21T00:01:11;10.48;;;7.90;;
23472;SDS011;11909;52.516;13.564;2023-11-21T00:03:39;11.05;;;7.43;;
23472;SDS011;11909;52.516;13.564;2023-11-21T00:06:07;11.25;;;8.63;;
23472;SDS011;11909;52.516;13.564;2023-11-21T00:08:35;15.77;;;9.43;;
23472;SDS011;11909;52.516;13.564;2023-11-21T00:11:04;10.95;;;9.25;;
23472;SDS011;11909;52.516;13.564;2023-11-21T00:13:32;13.75;;;10.23;;
23472;SDS011;11909;52.516;13.564;2023-11-21T00:16:02;17.30;;;10.35;;
23472;SDS011;11909;52.516;13.564;2023-11-21T00:18:30;15.13;;;10.18;;
23472;SDS011;11909;52.516;13.564;2023-11-21T00:20:58;12.60;;;9.15;;
23472;SDS011;11909;52.516;13.564;2023-11-21T00:23:26;16.13;;;10.73;;
23472;SDS011;11909;52.516;13.564;2023-11-21T00:25:54;15.77;;;10.73;;
23472;SDS011;11909;52.516;13.564;2023-11-21T00:28:22;18.70;;;12.00;;
23472;SDS011;11909;52.516;13.564;2023-11-21T00:30:50;17.33;;;11.48;;
23472;SDS011;11909;52.516;13.564;2023-11-21T00:33:19;20.60;;;12.27;;
23472;SDS011;11909;52.516;13.564;2023-11-21T00:35:47;20.65;;;12.70;;
23472;SDS011;11909;52.516;13.564;2023-11-21T00:38:15;19.35;;;12.95;;
23472;SDS011;11909;52.516;13.564;2023-11-21T00:40:46;19.63;;;12.57;;
23472;SDS011;11909;52.516;13.564;2023-11-21T00:43:14;23.13;;;14.48;;
23472;SDS011;11909;52.516;13.564;2023-11-21T00:45:42;22.15;;;13.68;;
23472;SDS011;11909;52.516;13.564;2023-11-21T00:48:10;20.60;;;13.85;;
23472;SDS011;11909;52.516;13.564;2023-11-21T00:50:41;24.10;;;14.83;;
23472;SDS011;11909;52.516;13.564;2023-11-21T00:53:09;24.55;;;14.90;;
23472;SDS011;11909;52.516;13.564;2023-11-21T00:55:37;28.15;;;16.42;;
23472;SDS011;11909;52.516;13.564;2023-11-21T00:58:06;26.65;;;16.73;;
23472;SDS011;11909;52.516;13.564;2023-11-21T01:00:34;37.90;;;19.30;;
23472;SDS011;11909;52.516;13.564;2023-11-21T01:03:06;30.17;;;17.85;;
23472;SDS011;11909;52.516;13.564;2023-11-21T01:05:34;30.48;;;18.55;;
23472;SDS011;11909;52.516;13.564;2023-11-21T01:08:04;30.85;;;17.58;;
23472;SDS011;11909;52.516;13.564;2023-11-21T01:10:32;36.50;;;17.33;;
23472;SDS011;11909;52.516;13.564;2023-11-21T01:13:00;30.75;;;17.88;;
23472;SDS011;11909;52.516;13.564;2023-11-21T01:15:28;32.63;;;18.13;;
23472;SDS011;11909;52.516;13.564;2023-11-21T01:17:56;33.70;;;18.25;;
23472;SDS011;11909;52.516;13.564;2023-11-21T01:20:24;41.33;;;20.40;;
23472;SDS011;11909;52.516;13.564;2023-11-21T01:22:53;37.60;;;19.80;;
23472;SDS011;11909;52.516;13.564;2023-11-21T01:25:23;34.90;;;19.77;;
23472;SDS011;11909;52.516;13.564;2023-11-21T01:27:50;40.83;;;20.35;;
23472;SDS011;11909;52.516;13.564;2023-11-21T01:30:19;41.22;;;19.55;;
23472;SDS011;11909;52.516;13.564;2023-11-21T01:32:47;41.70;;;19.65;;
23472;SDS011;11909;52.516;13.564;2023-11-21T01:35:15;33.88;;;17.92;;
23472;SDS011;11909;52.516;13.564;2023-11-21T01:37:43;40.55;;;19.95;;
23472;SDS011;11909;52.516;13.564;2023-11-21T01:40:10;43.60;;;21.48;;
23472;SDS011;11909;52.516;13.564;2023-11-21T01:42:42;38.85;;;20.60;;
23472;SDS011;11909;52.516;13.564;2023-11-21T01:45:11;45.40;;;22.45;;
23472;SDS011;11909;52.516;13.564;2023-11-21T01:47:40;46.15;;;22.27;;
23472;SDS011;11909;52.516;13.564;2023-11-21T01:50:11;41.97;;;21.80;;
23472;SDS011;11909;52.516;13.564;2023-11-21T01:52:44;54.25;;;23.80;;
23472;SDS011;11909;52.516;13.564;2023-11-21T01:55:13;52.40;;;24.67;;
23472;SDS011;11909;52.516;13.564;2023-11-21T01:57:55;47.80;;;21.85;;
23472;SDS011;11909;52.516;13.564;2023-11-21T02:00:24;41.83;;;19.88;;
23472;SDS011;11909;52.516;13.564;2023-11-21T02:02:55;37.95;;;17.33;;
23472;SDS011;11909;52.516;13.564;2023-11-21T02:05:24;36.83;;;17.60;;
23472;SDS011;11909;52.516;13.564;2023-11-21T02:07:52;40.65;;;17.30;;
23472;SDS011;11909;52.516;13.564;2023-11-21T02:10:20;39.38;;;18.13;;
23472;SDS011;11909;52.516;13.564;2023-11-21T02:12:50;32.78;;;15.23;;
23472;SDS011;11909;52.516;13.564;2023-11-21T02:15:20;35.42;;;16.20;;
23472;SDS011;11909;52.516;13.564;2023-11-21T02:17:48;31.52;;;15.18;;
23472;SDS011;11909;52.516;13.564;2023-11-21T02:20:19;30.83;;;14.80;;
23472;SDS011;11909;52.516;13.564;2023-11-21T02:22:51;32.95;;;15.52;;
23472;SDS011;11909;52.516;13.564;2023-11-21T02:25:25;30.20;;;13.68;;
23472;SDS011;11909;52.516;13.564;2023-11-21T02:27:54;29.33;;;14.77;;
23472;SDS011;11909;52.516;13.564;2023-11-21T02:30:22;30.27;;;13.10;;
23472;SDS011;11909;52.516;13.564;2023-11-21T02:32:51;34.45;;;14.25;;
23472;SDS011;11909;52.516;13.564;2023-11-21T02:35:20;28.88;;;12.93;;
23472;SDS011;11909;52.516;13.564;2023-11-21T02:37:48;26.88;;;12.32;;
23472;SDS011;11909;52.516;13.564;2023-11-21T02:40:17;23.98;;;12.23;;
23472;SDS011;11909;52.516;13.564;2023-11-21T02:42:47;23.52;;;11.88;;
23472;SDS011;11909;52.516;13.564;2023-11-21T02:45:17;20.20;;;11.38;;
23472;SDS011;11909;52.516;13.564;2023-11-21T02:47:48;23.42;;;11.65;;
23472;SDS011;11909;52.516;13.564;2023-11-21T02:50:16;23.20;;;11.32;;
23472;SDS011;11909;52.516;13.564;2023-11-21T02:52:45;22.63;;;11.10;;
23472;SDS011;11909;52.516;13.564;2023-11-21T02:55:13;21.42;;;11.73;;
23472;SDS011;11909;52.516;13.564;2023-11-21T02:57:43;20.40;;;10.60;;
23472;SDS011;11909;52.516;13.564;2023-11-21T03:00:11;18.42;;;10.63;;
23472;SDS011;11909;52.516;13.564;2023-11-21T03:02:41;15.30;;;9.35;;
23472;SDS011;11909;52.516;13.564;2023-11-21T03:05:10;17.58;;;10.27;;
23472;SDS011;11909;52.516;13.564;2023-11-21T03:07:38;16.50;;;9.68;;
23472;SDS011;11909;52.516;13.564;2023-11-21T03:10:07;16.70;;;9.68;;
23472;SDS011;11909;52.516;13.564;2023-11-21T03:12:38;15.55;;;8.85;;
23472;SDS011;11909;52.516;13.564;2023-11-21T03:15:07;16.88;;;9.75;;
23472;SDS011;11909;52.516;13.564;2023-11-21T03:17:36;17.25;;;10.20;;
23472;SDS011;11909;52.516;13.564;2023-11-21T03:20:05;12.88;;;8.23;;
23472;SDS011;11909;52.516;13.564;2023-11-21T03:22:37;12.35;;;8.48;;
23472;SDS011;11909;52.516;13.564;2023-11-21T03:25:06;12.38;;;7.93;;
23472;SDS011;11909;52.516;13.564;2023-11-21T03:27:37;15.63;;;8.43;;
23472;SDS011;11909;52.516;13.564;2023-11-21T03:30:08;12.15;;;7.55;;
23472;SDS011;11909;52.516;13.564;2023-11-21T03:32:37;11.27;;;7.70;;
23472;SDS011;11909;52.516;13.564;2023-11-21T03:35:05;11.02;;;8.30;;
23472;SDS011;11909;52.516;13.564;2023-11-21T03:37:33;11.40;;;8.18;;
23472;SDS011;11909;52.516;13.564;2023-11-21T03:40:02;11.38;;;7.80;;
23472;SDS011;11909;52.516;13.564;2023-11-21T03:42:31;12.82;;;8.68;;
23472;SDS011;11909;52.516;13.564;2023-11-21T03:44:58;12.13;;;8.40;;
23472;SDS011;11909;52.516;13.564;2023-11-21T03:47:28;15.02;;;9.07;;
23472;SDS011;11909;52.516;13.564;2023-11-21T03:49:56;10.82;;;8.48;;
23472;SDS011;11909;52.516;13.564;2023-11-21T03:52:24;11.85;;;8.43;;
23472;SDS011;11909;52.516;13.564;2023-11-21T03:54:53;10.23;;;7.63;;
23472;SDS011;11909;52.516;13.564;2023-11-21T03:57:21;10.13;;;7.38;;
23472;SDS011;11909;52.516;13.564;2023-11-21T03:59:49;8.88;;;7.45;;
23472;SDS011;11909;52.516;13.564;2023-11-21T04:02:17;11.60;;;6.90;;
23472;SDS011;11909;52.516;13.564;2023-11-21T04:04:46;9.60;;;7.28;;
23472;SDS011;11909;52.516;13.564;2023-11-21T04:07:14;9.57;;;7.05;;
23472;SDS011;11909;52.516;13.564;2023-11-21T04:09:42;8.95;;;6.60;;
23472;SDS011;11909;52.516;13.564;2023-11-21T04:12:10;8.45;;;7.00;;
23472;SDS011;11909;52.516;13.564;2023-11-21T04:14:38;7.15;;;5.72;;
23472;SDS011;11909;52.516;13.564;2023-11-21T04:17:06;8.68;;;6.18;;
23472;SDS011;11909;52.516;13.564;2023-11-21T04:19:34;8.02;;;5.80;;
23472;SDS011;11909;52.516;13.564;2023-11-21T04:22:03;8.75;;;5.53;;
23472;SDS011;11909;52.516;13.564;2023-11-21T04:24:32;7.40;;;5.53;;
23472;SDS011;11909;52.516;13.564;2023-11-21T04:26:59;6.55;;;4.97;;
23472;SDS011;11909;52.516;13.564;2023-11-21T04:29:29;7.05;;;5.20;;
23472;SDS011;11909;52.516;13.564;2023-11-21T04:31:57;5.70;;;4.55;;
23472;SDS011;11909;52.516;13.564;2023-11-21T04:34:25;6.35;;;4.50;;
23472;SDS011;11909;52.516;13.564;2023-11-21T04:36:53;6.60;;;4.72;;
23472;SDS011;11909;52.516;13.564;2023-11-21T04:39:22;7.07;;;5.18;;
23472;SDS011;11909;52.516;13.564;2023-11-21T04:41:50;6.30;;;4.47;;
23472;SDS011;11909;52.516;13.564;2023-11-21T04:44:18;6.07;;;4.53;;
23472;SDS011;11909;52.516;13.564;2023-11-21T04:46:46;5.75;;;4.43;;
23472;SDS011;11909;52.516;13.564;2023-11-21T04:49:14;5.95;;;4.28;;
23472;SDS011;11909;52.516;13.564;2023-11-21T04:51:42;6.25;;;4.97;;
23472;SDS011;11909;52.516;13.564;2023-11-21T04:54:10;8.30;;;4.93;;
23472;SDS011;11909;52.516;13.564;2023-11-21T04:56:39;7.13;;;5.25;;
23472;SDS011;11909;52.516;13.564;2023-11-21T04:59:08;6.28;;;5.13;;
23472;SDS011;11909;52.516;13.564;2023-11-21T05:01:36;7.45;;;5.60;;
23472;SDS011;11909;52.516;13.564;2023-11-21T05:04:05;7.45;;;5.10;;
23472;SDS011;11909;52.516;13.564;2023-11-21T05:06:35;7.38;;;5.28;;
23472;SDS011;11909;52.516;13.564;2023-11-21T05:09:03;7.93;;;5.75;;
23472;SDS011;11909;52.516;13.564;2023-11-21T05:11:31;7.32;;;5.57;;
23472;SDS011;11909;52.516;13.564;2023-11-21T05:14:00;7.60;;;5.50;;
23472;SDS011;11909;52.516;13.564;2023-11-21T05:16:30;6.97;;;5.05;;
23472;SDS011;11909;52.516;13.564;2023-11-21T05:18:57;7.28;;;5.38;;
23472;SDS011;11909;52.516;13.564;2023-11-21T05:21:27;7.43;;;5.43;;
23472;SDS011;11909;52.516;13.564;2023-11-21T05:23:55;9.30;;;5.50;;
23472;SDS011;11909;52.516;13.564;2023-11-21T05:26:24;5.78;;;4.63;;
23472;SDS011;11909;52.516;13.564;2023-11-21T05:28:52;6.95;;;5.47;;
23472;SDS011;11909;52.516;13.564;2023-11-21T05:31:21;7.80;;;5.90;;
23472;SDS011;11909;52.516;13.564;2023-11-21T05:33:49;8.20;;;6.20;;
23472;SDS011;11909;52.516;13.564;2023-11-21T05:36:17;6.65;;;4.90;;
23472;SDS011;11909;52.516;13.564;2023-11-21T05:38:45;6.35;;;5.35;;
23472;SDS011;11909;52.516;13.564;2023-11-21T05:41:13;6.85;;;5.18;;
23472;SDS011;11909;52.516;13.564;2023-11-21T05:43:41;7.28;;;4.85;;
23472;SDS011;11909;52.516;13.564;2023-11-21T05:46:10;7.97;;;5.22;;
23472;SDS011;11909;52.516;13.564;2023-11-21T05:48:39;7.00;;;5.10;;
23472;SDS011;11909;52.516;13.564;2023-11-21T05:51:08;5.78;;;4.60;;
23472;SDS011;11909;52.516;13.564;2023-11-21T05:53:39;6.57;;;5.05;;
23472;SDS011;11909;52.516;13.564;2023-11-21T05:56:07;6.80;;;4.85;;
23472;SDS011;11909;52.516;13.564;2023-11-21T05:58:35;5.32;;;4.30;;
23472;SDS011;11909;52.516;13.564;2023-11-21T06:01:05;6.93;;;4.93;;
23472;SDS011;11909;52.516;13.564;2023-11-21T06:03:35;6.85;;;5.18;;
23472;SDS011;11909;52.516;13.564;2023-11-21T06:06:05;8.18;;;4.72;;
23472;SDS011;11909;52.516;13.564;2023-11-21T06:08:33;6.90;;;5.10;;
23472;SDS011;11909;52.516;13.564;2023-11-21T06:11:01;6.88;;;5.00;;
23472;SDS011;11909;52.516;13.564;2023-11-21T06:13:29;5.60;;;4.88;;
23472;SDS011;11909;52.516;13.564;2023-11-21T06:15:57;6.97;;;5.43;;
23472;SDS011;11909;52.516;13.564;2023-11-21T06:18:25;6.53;;;4.78;;
23472;SDS011;11909;52.516;13.564;2023-11-21T06:20:53;5.45;;;4.50;;
23472;SDS011;11909;52.516;13.564;2023-11-21T06:23:22;5.30;;;4.45;;
23472;SDS011;11909;52.516;13.564;2023-11-21T06:25:50;6.18;;;4.43;;
23472;SDS011;11909;52.516;13.564;2023-11-21T06:28:18;6.97;;;4.82;;
23472;SDS011;11909;52.516;13.564;2023-11-21T06:30:45;7.70;;;4.80;;
23472;SDS011;11909;52.516;13.564;2023-11-21T06:33:15;7.00;;;5.07;;
23472;SDS011;11909;52.516;13.564;2023-11-21T06:35:43;5.18;;;4.68;;
23472;SDS011;11909;52.516;13.564;2023-11-21T06:38:11;6.68;;;4.95;;
23472;SDS011;11909;52.516;13.564;2023-11-21T06:40:40;6.22;;;5.18;;
23472;SDS011;11909;52.516;13.564;2023-11-21T06:43:08;6.28;;;4.68;;
23472;SDS011;11909;52.516;13.564;2023-11-21T06:45:36;10.95;;;5.47;;
23472;SDS011;11909;52.516;13.564;2023-11-21T06:48:04;5.88;;;4.63;;
23472;SDS011;11909;52.516;13.564;2023-11-21T06:50:32;5.97;;;5.10;;
23472;SDS011;11909;52.516;13.564;2023-11-21T06:53:00;7.88;;;5.65;;
23472;SDS011;11909;52.516;13.564;2023-11-21T06:55:30;5.93;;;4.83;;
23472;SDS011;11909;52.516;13.564;2023-11-21T06:58:00;7.00;;;5.13;;
23472;SDS011;11909;52.516;13.564;2023-11-21T07:00:28;14.52;;;9.60;;
23472;SDS011;11909;52.516;13.564;2023-11-21T07:02:56;7.35;;;4.88;;
23472;SDS011;11909;52.516;13.564;2023-11-21T07:05:24;6.65;;;5.38;;
23472;SDS011;11909;52.516;13.564;2023-11-21T07:07:52;6.47;;;4.95;;
23472;SDS011;11909;52.516;13.564;2023-11-21T07:10:20;5.63;;;4.57;;
23472;SDS011;11909;52.516;13.564;2023-11-21T07:12:48;6.07;;;5.03;;
23472;SDS011;11909;52.516;13.564;2023-11-21T07:15:19;5.50;;;4.60;;
23472;SDS011;11909;52.516;13.564;2023-11-21T07:17:47;6.00;;;4.80;;
23472;SDS011;11909;52.516;13.564;2023-11-21T07:20:15;7.05;;;4.90;;
23472;SDS011;11909;52.516;13.564;2023-11-21T07:22:44;6.32;;;4.60;;
23472;SDS011;11909;52.516;13.564;2023-11-21T07:25:13;8.75;;;5.03;;
23472;SDS011;11909;52.516;13.564;2023-11-21T07:27:40;6.63;;;4.75;;
23472;SDS011;11909;52.516;13.564;2023-11-21T07:30:09;13.10;;;5.10;;
23472;SDS011;11909;52.516;13.564;2023-11-21T07:32:40;8.52;;;4.70;;
23472;SDS011;11909;52.516;13.564;2023-11-21T07:35:09;6.53;;;4.80;;
23472;SDS011;11909;52.516;13.564;2023-11-21T07:37:37;7.85;;;5.10;;
23472;SDS011;11909;52.516;13.564;2023-11-21T07:40:06;10.05;;;5.30;;
23472;SDS011;11909;52.516;13.564;2023-11-21T07:42:35;14.05;;;7.30;;
23472;SDS011;11909;52.516;13.564;2023-11-21T07:45:04;12.93;;;7.25;;
23472;SDS011;11909;52.516;13.564;2023-11-21T07:47:33;13.63;;;7.45;;
23472;SDS011;11909;52.516;13.564;2023-11-21T07:50:03;15.77;;;7.20;;
23472;SDS011;11909;52.516;13.564;2023-11-21T07:52:34;15.18;;;7.57;;
23472;SDS011;11909;52.516;13.564;2023-11-21T07:55:02;20.48;;;9.82;;
23472;SDS011;11909;52.516;13.564;2023-11-21T07:57:31;17.17;;;8.82;;
23472;SDS011;11909;52.516;13.564;2023-11-21T07:59:59;17.70;;;8.65;;
23472;SDS011;11909;52.516;13.564;2023-11-21T08:02:27;22.27;;;9.48;;
23472;SDS011;11909;52.516;13.564;2023-11-21T08:04:55;23.50;;;10.63;;
23472;SDS011;11909;52.516;13.564;2023-11-21T08:07:25;21.58;;;9.73;;
23472;SDS011;11909;52.516;13.564;2023-11-21T08:09:53;23.08;;;10.15;;
23472;SDS011;11909;52.516;13.564;2023-11-21T08:12:22;19.92;;;10.07;;
23472;SDS011;11909;52.516;13.564;2023-11-21T08:14:51;23.17;;;12.23;;
23472;SDS011;11909;52.516;13.564;2023-11-21T08:17:18;23.98;;;10.60;;
23472;SDS011;11909;52.516;13.564;2023-11-21T08:19:47;24.63;;;10.55;;
23472;SDS011;11909;52.516;13.564;2023-11-21T08:22:16;24.60;;;11.00;;
23472;SDS011;11909;52.516;13.564;2023-11-21T08:24:45;26.38;;;11.70;;
23472;SDS011;11909;52.516;13.564;2023-11-21T08:27:14;22.40;;;10.95;;
23472;SDS011;11909;52.516;13.564;2023-11-21T08:29:42;24.63;;;10.40;;
23472;SDS011;11909;52.516;13.564;2023-11-21T08:32:10;25.40;;;10.57;;
23472;SDS011;11909;52.516;13.564;2023-11-21T08:34:37;21.48;;;10.27;;
23472;SDS011;11909;52.516;13.564;2023-11-21T08:37:06;23.30;;;10.48;;
23472;SDS011;11909;52.516;13.564;2023-11-21T08:39:34;20.77;;;9.93;;
23472;SDS011;11909;52.516;13.564;2023-11-21T08:42:05;20.60;;;10.45;;
23472;SDS011;11909;52.516;13.564;2023-11-21T08:44:34;24.25;;;9.80;;
23472;SDS011;11909;52.516;13.564;2023-11-21T08:47:02;19.77;;;7.90;;
23472;SDS011;11909;52.516;13.564;2023-11-21T08:49:33;16.20;;;7.97;;
23472;SDS011;11909;52.516;13.564;2023-11-21T08:52:01;12.48;;;7.22;;
23472;SDS011;11909;52.516;13.564;2023-11-21T08:54:31;13.70;;;6.80;;
23472;SDS011;11909;52.516;13.564;2023-11-21T08:57:00;13.00;;;6.38;;
23472;SDS011;11909;52.516;13.564;2023-11-21T08:59:30;20.13;;;10.13;;
23472;SDS011;11909;52.516;13.564;2023-11-21T09:01:58;8.10;;;5.00;;
23472;SDS011;11909;52.516;13.564;2023-11-21T09:04:26;15.70;;;7.75;;
23472;SDS011;11909;52.516;13.564;2023-11-21T09:06:53;7.78;;;4.22;;
23472;SDS011;11909;52.516;13.564;2023-11-21T09:09:21;8.50;;;3.80;;
23472;SDS011;11909;52.516;13.564;2023-11-21T09:11:51;6.03;;;3.45;;
23472;SDS011;11909;52.516;13.564;2023-11-21T09:14:18;4.25;;;2.35;;
23472;SDS011;11909;52.516;13.564;2023-11-21T09:16:48;4.60;;;2.65;;
23472;SDS011;11909;52.516;13.564;2023-11-21T09:19:17;3.88;;;2.25;;
23472;SDS011;11909;52.516;13.564;2023-11-21T09:21:45;4.05;;;2.40;;
23472;SDS011;11909;52.516;13.564;2023-11-21T09:24:12;4.93;;;2.55;;
23472;SDS011;11909;52.516;13.564;2023-11-21T09:26:41;6.60;;;2.72;;
23472;SDS011;11909;52.516;13.564;2023-11-21T09:29:09;4.30;;;2.60;;
23472;SDS011;11909;52.516;13.564;2023-11-21T09:31:37;6.65;;;3.20;;
23472;SDS011;11909;52.516;13.564;2023-11-21T09:34:06;6.22;;;2.88;;
23472;SDS011;11909;52.516;13.564;2023-11-21T09:36:34;5.47;;;2.83;;
23472;SDS011;11909;52.516;13.564;2023-11-21T09:39:02;3.75;;;2.35;;
23472;SDS011;11909;52.516;13.564;2023-11-21T09:41:32;4.07;;;2.50;;
23472;SDS011;11909;52.516;13.564;2023-11-21T09:44:06;4.28;;;2.55;;
23472;SDS011;11909;52.516;13.564;2023-11-21T09:46:37;4.43;;;2.40;;
23472;SDS011;11909;52.516;13.564;2023-11-21T09:49:11;2.55;;;2.15;;
23472;SDS011;11909;52.516;13.564;2023-11-21T09:51:42;3.53;;;2.33;;
23472;SDS011;11909;52.516;13.564;2023-11-21T09:54:11;4.13;;;2.83;;
23472;SDS011;11909;52.516;13.564;2023-11-21T09:56:40;3.95;;;3.05;;
23472;SDS011;11909;52.516;13.564;2023-11-21T09:59:10;4.10;;;2.37;;
23472;SDS011;11909;52.516;13.564;2023-11-21T10:01:42;2.25;;;1.92;;
23472;SDS011;11909;52.516;13.564;2023-11-21T10:04:12;2.95;;;2.30;;
23472;SDS011;11909;52.516;13.564;2023-11-21T10:06:42;2.50;;;2.05;;
23472;SDS011;11909;52.516;13.564;2023-11-21T10:09:12;2.28;;;1.73;;
23472;SDS011;11909;52.516;13.564;2023-11-21T10:11:41;1.60;;;1.50;;
23472;SDS011;11909;52.516;13.564;2023-11-21T10:14:10;2.00;;;1.77;;
23472;SDS011;11909;52.516;13.564;2023-11-21T10:16:40;1.77;;;1.58;;
23472;SDS011;11909;52.516;13.564;2023-11-21T10:19:14;2.67;;;1.70;;
23472;SDS011;11909;52.516;13.564;2023-11-21T10:24:11;2.90;;;2.03;;
23472;SDS011;11909;52.516;13.564;2023-11-21T10:26:39;1.60;;;1.50;;
23472;SDS011;11909;52.516;13.564;2023-11-21T10:29:18;3.17;;;2.03;;
23472;SDS011;11909;52.516;13.564;2023-11-21T10:31:48;2.72;;;1.98;;
23472;SDS011;11909;52.516;13.564;2023-11-21T10:34:20;3.08;;;2.47;;
23472;SDS011;11909;52.516;13.564;2023-11-21T10:36:48;8.00;;;5.13;;
23472;SDS011;11909;52.516;13.564;2023-11-21T10:39:16;2.45;;;2.20;;
23472;SDS011;11909;52.516;13.564;2023-11-21T10:41:45;2.60;;;2.00;;
23472;SDS011;11909;52.516;13.564;2023-11-21T10:44:15;3.00;;;2.00;;
23472;SDS011;11909;52.516;13.564;2023-11-21T10:46:48;2.10;;;1.88;;
23472;SDS011;11909;52.516;13.564;2023-11-21T10:49:17;2.28;;;1.77;;
23472;SDS011;11909;52.516;13.564;2023-11-21T10:51:47;3.63;;;2.30;;
23472;SDS011;11909;52.516;13.564;2023-11-21T10:54:18;2.85;;;2.33;;
23472;SDS011;11909;52.516;13.564;2023-11-21T10:56:46;2.70;;;2.25;;
23472;SDS011;11909;52.516;13.564;2023-11-21T10:59:17;3.40;;;2.58;;
23472;SDS011;11909;52.516;13.564;2023-11-21T11:01:47;2.60;;;2.40;;
23472;SDS011;11909;52.516;13.564;2023-11-21T11:04:18;3.80;;;2.67;;
23472;SDS011;11909;52.516;13.564;2023-11-21T11:06:50;3.38;;;2.67;;
23472;SDS011;11909;52.516;13.564;2023-11-21T11:09:23;2.67;;;2.47;;
23472;SDS011;11909;52.516;13.564;2023-11-21T11:11:50;4.70;;;2.50;;
23472;SDS011;11909;52.516;13.564;2023-11-21T11:14:20;3.28;;;2.30;;
23472;SDS011;11909;52.516;13.564;2023-11-21T11:16:53;3.20;;;2.63;;
23472;SDS011;11909;52.516;13.564;2023-11-21T11:19:22;3.13;;;2.83;;
23472;SDS011;11909;52.516;13.564;2023-11-21T11:21:54;4.05;;;2.60;;
23472;SDS011;11909;52.516;13.564;2023-11-21T11:24:49;3.35;;;2.80;;
23472;SDS011;11909;52.516;13.564;2023-11-21T11:27:34;3.38;;;2.70;;
23472;SDS011;11909;52.516;13.564;2023-11-21T11:30:11;3.55;;;3.03;;
23472;SDS011;11909;52.516;13.564;2023-11-21T11:32:51;5.50;;;2.80;;
23472;SDS011;11909;52.516;13.564;2023-11-21T11:35:26;2.72;;;2.53;;
23472;SDS011;11909;52.516;13.564;2023-11-21T11:38:02;10.38;;;5.90;;
23472;SDS011;11909;52.516;13.564;2023-11-21T11:40:40;16.80;;;9.43;;
23472;SDS011;11909;52.516;13.564;2023-11-21T11:43:08;5.38;;;2.88;;
23472;SDS011;11909;52.516;13.564;2023-11-21T11:45:36;3.10;;;2.35;;
23472;SDS011;11909;52.516;13.564;2023-11-21T11:48:08;2.85;;;2.38;;
23472;SDS011;11909;52.516;13.564;2023-11-21T11:50:42;4.18;;;2.20;;
23472;SDS011;11909;52.516;13.564;2023-11-21T11:53:34;3.35;;;3.05;;
23472;SDS011;11909;52.516;13.564;2023-11-21T11:56:25;4.03;;;2.50;;
23472;SDS011;11909;52.516;13.564;2023-11-21T11:58:55;3.38;;;2.67;;
23472;SDS011;11909;52.516;13.564;2023-11-21T12:01:24;3.72;;;2.78;;
23472;SDS011;11909;52.516;13.564;2023-11-21T12:07:01;3.08;;;2.58;;
23472;SDS011;11909;52.516;13.564;2023-11-21T12:09:31;2.95;;;2.45;;
23472;SDS011;11909;52.516;13.564;2023-11-21T12:12:00;6.70;;;3.40;;
23472;SDS011;11909;52.516;13.564;2023-11-21T12:14:30;3.60;;;3.00;;
23472;SDS011;11909;52.516;13.564;2023-11-21T12:16:58;6.35;;;2.63;;
23472;SDS011;11909;52.516;13.564;2023-11-21T12:19:27;3.42;;;2.60;;
23472;SDS011;11909;52.516;13.564;2023-11-21T12:21:54;2.65;;;2.20;;
23472;SDS011;11909;52.516;13.564;2023-11-21T12:24:23;3.20;;;2.60;;
23472;SDS011;11909;52.516;13.564;2023-11-21T12:26:52;3.33;;;2.40;;
23472;SDS011;11909;52.516;13.564;2023-11-21T12:29:20;4.40;;;2.90;;
23472;SDS011;11909;52.516;13.564;2023-11-21T12:31:48;2.60;;;2.40;;
23472;SDS011;11909;52.516;13.564;2023-11-21T12:34:17;3.25;;;2.42;;
23472;SDS011;11909;52.516;13.564;2023-11-21T12:36:45;3.95;;;3.15;;
23472;SDS011;11909;52.516;13.564;2023-11-21T12:39:13;16.05;;;9.10;;
23472;SDS011;11909;52.516;13.564;2023-11-21T12:41:41;6.28;;;4.22;;
23472;SDS011;11909;52.516;13.564;2023-11-21T12:44:12;3.83;;;2.83;;
23472;SDS011;11909;52.516;13.564;2023-11-21T12:46:42;3.08;;;2.55;;
23472;SDS011;11909;52.516;13.564;2023-11-21T12:49:12;2.75;;;2.38;;
23472;SDS011;11909;52.516;13.564;2023-11-21T12:51:45;2.92;;;2.63;;
23472;SDS011;11909;52.516;13.564;2023-11-21T12:54:13;2.60;;;2.40;;
23472;SDS011;11909;52.516;13.564;2023-11-21T12:56:44;2.58;;;2.38;;
23472;SDS011;11909;52.516;13.564;2023-11-21T12:59:15;2.88;;;2.38;;
23472;SDS011;11909;52.516;13.564;2023-11-21T13:04:12;3.17;;;2.65;;
23472;SDS011;11909;52.516;13.564;2023-11-21T13:06:40;2.63;;;2.42;;
23472;SDS011;11909;52.516;13.564;2023-11-21T13:09:08;3.63;;;3.00;;
23472;SDS011;11909;52.516;13.564;2023-11-21T13:11:37;3.25;;;2.95;;
23472;SDS011;11909;52.516;13.564;2023-11-21T13:16:38;3.05;;;2.70;;
23472;SDS011;11909;52.516;13.564;2023-11-21T13:19:12;3.50;;;2.78;;
23472;SDS011;11909;52.516;13.564;2023-11-21T13:21:40;5.85;;;3.38;;
23472;SDS011;11909;52.516;13.564;2023-11-21T13:24:08;4.63;;;3.58;;
23472;SDS011;11909;52.516;13.564;2023-11-21T13:26:36;4.80;;;3.67;;
23472;SDS011;11909;52.516;13.564;2023-11-21T13:29:05;4.57;;;3.60;;
23472;SDS011;11909;52.516;13.564;2023-11-21T13:31:33;5.72;;;4.10;;
23472;SDS011;11909;52.516;13.564;2023-11-21T13:34:05;4.93;;;4.10;;
23472;SDS011;11909;52.516;13.564;2023-11-21T13:36:35;8.40;;;4.40;;
23472;SDS011;11909;52.516;13.564;2023-11-21T13:39:03;4.80;;;4.15;;
23472;SDS011;11909;52.516;13.564;2023-11-21T13:41:34;6.75;;;4.03;;
23472;SDS011;11909;52.516;13.564;2023-11-21T13:44:05;5.88;;;4.25;;
23472;SDS011;11909;52.516;13.564;2023-11-21T13:46:42;5.93;;;4.78;;
23472;SDS011;11909;52.516;13.564;2023-11-21T13:49:14;9.63;;;4.85;;
23472;SDS011;11909;52.516;13.564;2023-11-21T13:51:42;6.55;;;5.15;;
23472;SDS011;11909;52.516;13.564;2023-11-21T13:54:11;7.38;;;4.47;;
23472;SDS011;11909;52.516;13.564;2023-11-21T13:56:41;6.47;;;5.32;;
23472;SDS011;11909;52.516;13.564;2023-11-21T13:59:11;5.60;;;4.70;;
23472;SDS011;11909;52.516;13.564;2023-11-21T14:01:47;5.53;;;4.90;;
23472;SDS011;11909;52.516;13.564;2023-11-21T14:04:24;8.35;;;5.53;;
23472;SDS011;11909;52.516;13.564;2023-11-21T14:07:13;9.00;;;6.20;;
23472;SDS011;11909;52.516;13.564;2023-11-21T14:09:58;8.77;;;6.63;;
23472;SDS011;11909;52.516;13.564;2023-11-21T14:12:27;8.77;;;6.95;;
23472;SDS011;11909;52.516;13.564;2023-11-21T14:15:00;15.32;;;8.07;;
23472;SDS011;11909;52.516;13.564;2023-11-21T14:17:29;10.93;;;8.10;;
23472;SDS011;11909;52.516;13.564;2023-11-21T14:19:59;11.75;;;8.10;;
23472;SDS011;11909;52.516;13.564;2023-11-21T14:22:28;13.07;;;9.15;;
23472;SDS011;11909;52.516;13.564;2023-11-21T14:24:56;14.65;;;9.68;;
23472;SDS011;11909;52.516;13.564;2023-11-21T14:27:26;15.77;;;10.77;;
23472;SDS011;11909;52.516;13.564;2023-11-21T14:29:55;14.30;;;9.93;;
23472;SDS011;11909;52.516;13.564;2023-11-21T14:32:23;15.18;;;11.07;;
23472;SDS011;11909;52.516;13.564;2023-11-21T14:34:52;16.40;;;11.88;;
23472;SDS011;11909;52.516;13.564;2023-11-21T14:37:21;19.15;;;12.63;;
23472;SDS011;11909;52.516;13.564;2023-11-21T14:39:50;16.47;;;11.97;;
23472;SDS011;11909;52.516;13.564;2023-11-21T14:42:18;17.80;;;13.13;;
23472;SDS011;11909;52.516;13.564;2023-11-21T14:44:51;18.95;;;13.15;;
23472;SDS011;11909;52.516;13.564;2023-11-21T14:47:19;20.55;;;14.30;;
23472;SDS011;11909;52.516;13.564;2023-11-21T14:49:51;22.35;;;14.73;;